sensor_id;sensor_type;location;lat;lon;timestamp;temperature;humidity
46492;DHT22;32206;51.446;6.792;2022-08-21T00:01:46;20.60;1.00
46492;DHT22;32206;51.446;6.792;2022-08-21T00:04:11;20.60;99.90
46492;DHT22;32206;51.446;6.792;2022-08-21T00:06:38;20.60;99.90
46492;DHT22;32206;51.446;6.792;2022-08-21T00:09:06;20.60;99.90
46492;DHT22;32206;51.446;6.792;2022-08-21T00:11:33;20.50;1.00
46492;DHT22;32206;51.446;6.792;2022-08-21T00:14:00;20.60;99.90
46492;DHT22;32206;51.446;6.792;2022-08-21T00:16:26;20.50;17.80
46492;DHT22;32206;51.446;6.792;2022-08-21T00:18:51;20.50;90.80
46492;DHT22;32206;51.446;6.792;2022-08-21T00:21:17;20.50;1.00
46492;DHT22;32206;51.446;6.792;2022-08-21T00:23:43;20.50;1.00
46492;DHT22;32206;51.446;6.792;2022-08-21T00:26:08;20.50;99.90
46492;DHT22;32206;51.446;6.792;2022-08-21T00:28:34;20.50;1.00
46492;DHT22;32206;51.446;6.792;2022-08-21T00:31:00;20.50;1.00
46492;DHT22;32206;51.446;6.792;2022-08-21T00:33:29;20.50;1.00
46492;DHT22;32206;51.446;6.792;2022-08-21T00:35:55;20.50;99.90
46492;DHT22;32206;51.446;6.792;2022-08-21T00:38:20;20.50;99.90
46492;DHT22;32206;51.446;6.792;2022-08-21T00:40:52;20.40;99.90
46492;DHT22;32206;51.446;6.792;2022-08-21T00:43:21;20.40;1.00
46492;DHT22;32206;51.446;6.792;2022-08-21T00:45:47;20.40;99.90
46492;DHT22;32206;51.446;6.792;2022-08-21T00:48:13;20.30;99.90
46492;DHT22;32206;51.446;6.792;2022-08-21T00:50:44;20.30;99.90
46492;DHT22;32206;51.446;6.792;2022-08-21T00:53:12;20.30;99.90
46492;DHT22;32206;51.446;6.792;2022-08-21T00:55:39;20.20;99.90
46492;DHT22;32206;51.446;6.792;2022-08-21T00:58:07;20.20;1.00
46492;DHT22;32206;51.446;6.792;2022-08-21T01:00:36;20.20;84.00
46492;DHT22;32206;51.446;6.792;2022-08-21T01:03:08;20.10;64.30
46492;DHT22;32206;51.446;6.792;2022-08-21T01:05:34;20.10;1.00
46492;DHT22;32206;51.446;6.792;2022-08-21T01:08:00;20.00;1.00
46492;DHT22;32206;51.446;6.792;2022-08-21T01:10:26;20.00;1.00
46492;DHT22;32206;51.446;6.792;2022-08-21T01:12:53;20.00;99.90
46492;DHT22;32206;51.446;6.792;2022-08-21T01:15:22;20.00;17.00
46492;DHT22;32206;51.446;6.792;2022-08-21T01:17:49;19.90;1.00
46492;DHT22;32206;51.446;6.792;2022-08-21T01:20:15;19.90;1.00
46492;DHT22;32206;51.446;6.792;2022-08-21T01:22:41;19.90;99.30
46492;DHT22;32206;51.446;6.792;2022-08-21T01:25:09;19.80;99.90
46492;DHT22;32206;51.446;6.792;2022-08-21T01:27:36;19.80;99.90
46492;DHT22;32206;51.446;6.792;2022-08-21T01:30:24;19.80;99.90
46492;DHT22;32206;51.446;6.792;2022-08-21T01:32:50;19.70;99.90
46492;DHT22;32206;51.446;6.792;2022-08-21T01:35:18;19.70;99.90
46492;DHT22;32206;51.446;6.792;2022-08-21T01:37:44;19.70;1.00
46492;DHT22;32206;51.446;6.792;2022-08-21T01:40:11;19.70;99.90
46492;DHT22;32206;51.446;6.792;2022-08-21T01:42:37;19.60;99.90
46492;DHT22;32206;51.446;6.792;2022-08-21T01:45:06;19.60;99.90
46492;DHT22;32206;51.446;6.792;2022-08-21T01:47:32;19.50;1.00
46492;DHT22;32206;51.446;6.792;2022-08-21T01:49:58;19.50;17.90
46492;DHT22;32206;51.446;6.792;2022-08-21T01:52:24;19.50;99.90
46492;DHT22;32206;51.446;6.792;2022-08-21T01:54:50;19.50;99.90
46492;DHT22;32206;51.446;6.792;2022-08-21T01:57:16;19.40;1.00
46492;DHT22;32206;51.446;6.792;2022-08-21T01:59:42;19.40;99.90
46492;DHT22;32206;51.446;6.792;2022-08-21T02:02:07;19.40;1.00
46492;DHT22;32206;51.446;6.792;2022-08-21T02:04:33;19.30;1.00
46492;DHT22;32206;51.446;6.792;2022-08-21T02:07:00;19.30;98.50
46492;DHT22;32206;51.446;6.792;2022-08-21T02:09:26;19.30;99.90
46492;DHT22;32206;51.446;6.792;2022-08-21T02:11:52;19.20;1.00
46492;DHT22;32206;51.446;6.792;2022-08-21T02:14:18;19.20;1.00
46492;DHT22;32206;51.446;6.792;2022-08-21T02:16:44;19.10;99.90
46492;DHT22;32206;51.446;6.792;2022-08-21T02:19:12;19.10;1.00
46492;DHT22;32206;51.446;6.792;2022-08-21T02:21:39;19.10;1.00
46492;DHT22;32206;51.446;6.792;2022-08-21T02:24:05;19.00;99.90
46492;DHT22;32206;51.446;6.792;2022-08-21T02:26:31;19.00;99.90
46492;DHT22;32206;51.446;6.792;2022-08-21T02:28:57;19.00;99.90
46492;DHT22;32206;51.446;6.792;2022-08-21T02:31:22;19.00;99.90
46492;DHT22;32206;51.446;6.792;2022-08-21T02:33:48;18.90;99.90
46492;DHT22;32206;51.446;6.792;2022-08-21T02:36:14;18.90;99.90
46492;DHT22;32206;51.446;6.792;2022-08-21T02:38:41;18.90;99.90
46492;DHT22;32206;51.446;6.792;2022-08-21T02:41:10;18.90;61.80
46492;DHT22;32206;51.446;6.792;2022-08-21T02:43:36;18.80;1.00
46492;DHT22;32206;51.446;6.792;2022-08-21T02:46:03;18.80;99.90
46492;DHT22;32206;51.446;6.792;2022-08-21T02:48:31;18.80;99.90
46492;DHT22;32206;51.446;6.792;2022-08-21T02:51:16;18.80;99.90
46492;DHT22;32206;51.446;6.792;2022-08-21T02:53:43;18.80;47.50
46492;DHT22;32206;51.446;6.792;2022-08-21T02:56:11;18.70;99.90
46492;DHT22;32206;51.446;6.792;2022-08-21T02:58:41;18.70;99.90
46492;DHT22;32206;51.446;6.792;2022-08-21T03:01:08;18.60;99.90
46492;DHT22;32206;51.446;6.792;2022-08-21T03:03:35;18.60;1.00
46492;DHT22;32206;51.446;6.792;2022-08-21T03:06:02;18.60;1.00
46492;DHT22;32206;51.446;6.792;2022-08-21T03:08:28;18.60;1.00
46492;DHT22;32206;51.446;6.792;2022-08-21T03:10:54;18.40;66.10
46492;DHT22;32206;51.446;6.792;2022-08-21T03:13:20;18.40;99.90
46492;DHT22;32206;51.446;6.792;2022-08-21T03:15:47;18.30;99.90
46492;DHT22;32206;51.446;6.792;2022-08-21T03:18:14;18.30;99.90
46492;DHT22;32206;51.446;6.792;2022-08-21T03:20:41;18.20;99.90
46492;DHT22;32206;51.446;6.792;2022-08-21T03:23:07;18.20;99.90
46492;DHT22;32206;51.446;6.792;2022-08-21T03:25:33;18.20;99.90
46492;DHT22;32206;51.446;6.792;2022-08-21T03:28:00;18.20;99.90
46492;DHT22;32206;51.446;6.792;2022-08-21T03:30:26;18.20;99.90
46492;DHT22;32206;51.446;6.792;2022-08-21T03:32:52;18.20;99.90
46492;DHT22;32206;51.446;6.792;2022-08-21T03:35:19;18.20;99.90
46492;DHT22;32206;51.446;6.792;2022-08-21T03:37:45;18.10;99.90
46492;DHT22;32206;51.446;6.792;2022-08-21T03:40:17;18.10;99.90
46492;DHT22;32206;51.446;6.792;2022-08-21T03:42:44;18.10;99.90
46492;DHT22;32206;51.446;6.792;2022-08-21T03:45:13;18.10;1.00
46492;DHT22;32206;51.446;6.792;2022-08-21T03:47:38;18.10;1.00
46492;DHT22;32206;51.446;6.792;2022-08-21T03:50:04;18.10;1.00
46492;DHT22;32206;51.446;6.792;2022-08-21T03:52:30;18.10;99.90
46492;DHT22;32206;51.446;6.792;2022-08-21T03:54:56;18.10;1.00
46492;DHT22;32206;51.446;6.792;2022-08-21T03:57:22;18.00;1.00
46492;DHT22;32206;51.446;6.792;2022-08-21T03:59:47;18.00;99.90
46492;DHT22;32206;51.446;6.792;2022-08-21T04:02:16;18.00;1.00
46492;DHT22;32206;51.446;6.792;2022-08-21T04:04:43;17.90;1.00
46492;DHT22;32206;51.446;6.792;2022-08-21T04:07:09;18.00;99.90
46492;DHT22;32206;51.446;6.792;2022-08-21T04:09:34;17.90;1.00
46492;DHT22;32206;51.446;6.792;2022-08-21T04:12:01;17.90;1.00
46492;DHT22;32206;51.446;6.792;2022-08-21T04:14:27;18.00;99.90
46492;DHT22;32206;51.446;6.792;2022-08-21T04:16:53;18.00;99.90
46492;DHT22;32206;51.446;6.792;2022-08-21T04:19:18;18.00;99.90
46492;DHT22;32206;51.446;6.792;2022-08-21T04:21:44;18.00;99.90
46492;DHT22;32206;51.446;6.792;2022-08-21T04:24:10;17.90;99.90
46492;DHT22;32206;51.446;6.792;2022-08-21T04:26:37;17.90;99.90
46492;DHT22;32206;51.446;6.792;2022-08-21T04:29:03;17.90;99.90
46492;DHT22;32206;51.446;6.792;2022-08-21T04:31:32;17.90;99.90
46492;DHT22;32206;51.446;6.792;2022-08-21T04:33:59;17.90;99.90
46492;DHT22;32206;51.446;6.792;2022-08-21T04:36:25;17.90;99.90
46492;DHT22;32206;51.446;6.792;2022-08-21T04:38:50;17.90;99.90
46492;DHT22;32206;51.446;6.792;2022-08-21T04:41:17;17.80;1.00
46492;DHT22;32206;51.446;6.792;2022-08-21T04:43:42;17.70;1.00
46492;DHT22;32206;51.446;6.792;2022-08-21T04:46:08;17.70;1.00
46492;DHT22;32206;51.446;6.792;2022-08-21T04:48:34;17.70;1.00
46492;DHT22;32206;51.446;6.792;2022-08-21T04:51:14;17.60;1.00
46492;DHT22;32206;51.446;6.792;2022-08-21T04:53:56;17.60;1.00
46492;DHT22;32206;51.446;6.792;2022-08-21T04:56:28;17.60;1.00
46492;DHT22;32206;51.446;6.792;2022-08-21T04:58:57;17.60;1.00
46492;DHT22;32206;51.446;6.792;2022-08-21T05:01:28;17.60;1.00
46492;DHT22;32206;51.446;6.792;2022-08-21T05:03:56;17.50;1.00
46492;DHT22;32206;51.446;6.792;2022-08-21T05:06:23;17.50;1.00
46492;DHT22;32206;51.446;6.792;2022-08-21T05:08:51;17.40;1.00
46492;DHT22;32206;51.446;6.792;2022-08-21T05:11:18;17.40;1.00
46492;DHT22;32206;51.446;6.792;2022-08-21T05:13:45;17.40;1.00
46492;DHT22;32206;51.446;6.792;2022-08-21T05:16:11;17.40;1.00
46492;DHT22;32206;51.446;6.792;2022-08-21T05:18:37;17.40;1.00
46492;DHT22;32206;51.446;6.792;2022-08-21T05:21:03;17.40;1.00
46492;DHT22;32206;51.446;6.792;2022-08-21T05:23:29;17.40;1.00
46492;DHT22;32206;51.446;6.792;2022-08-21T05:25:55;17.40;1.00
46492;DHT22;32206;51.446;6.792;2022-08-21T05:28:21;17.40;1.00
46492;DHT22;32206;51.446;6.792;2022-08-21T05:30:47;17.40;1.00
46492;DHT22;32206;51.446;6.792;2022-08-21T05:33:13;17.30;1.00
46492;DHT22;32206;51.446;6.792;2022-08-21T05:35:38;17.30;1.00
46492;DHT22;32206;51.446;6.792;2022-08-21T05:38:05;17.30;1.00
46492;DHT22;32206;51.446;6.792;2022-08-21T05:40:32;17.30;1.00
46492;DHT22;32206;51.446;6.792;2022-08-21T05:42:57;17.30;1.00
46492;DHT22;32206;51.446;6.792;2022-08-21T05:45:27;17.30;1.00
46492;DHT22;32206;51.446;6.792;2022-08-21T05:47:53;17.20;1.00
46492;DHT22;32206;51.446;6.792;2022-08-21T05:50:19;17.20;1.00
46492;DHT22;32206;51.446;6.792;2022-08-21T05:52:45;17.30;1.00
46492;DHT22;32206;51.446;6.792;2022-08-21T05:55:11;17.30;1.00
46492;DHT22;32206;51.446;6.792;2022-08-21T05:57:37;17.30;1.00
46492;DHT22;32206;51.446;6.792;2022-08-21T06:00:07;17.30;1.00
46492;DHT22;32206;51.446;6.792;2022-08-21T06:02:34;17.30;1.00
46492;DHT22;32206;51.446;6.792;2022-08-21T06:04:59;17.40;1.00
46492;DHT22;32206;51.446;6.792;2022-08-21T06:07:25;17.40;1.00
46492;DHT22;32206;51.446;6.792;2022-08-21T06:09:50;17.40;1.00
46492;DHT22;32206;51.446;6.792;2022-08-21T06:12:17;17.40;1.00
46492;DHT22;32206;51.446;6.792;2022-08-21T06:14:42;17.40;1.00
46492;DHT22;32206;51.446;6.792;2022-08-21T06:17:11;17.50;1.00
46492;DHT22;32206;51.446;6.792;2022-08-21T06:19:37;17.60;1.00
46492;DHT22;32206;51.446;6.792;2022-08-21T06:22:03;17.60;1.00
46492;DHT22;32206;51.446;6.792;2022-08-21T06:24:29;17.60;1.00
46492;DHT22;32206;51.446;6.792;2022-08-21T06:26:56;17.70;1.00
46492;DHT22;32206;51.446;6.792;2022-08-21T06:29:22;17.70;99.90
46492;DHT22;32206;51.446;6.792;2022-08-21T06:31:50;17.70;99.90
46492;DHT22;32206;51.446;6.792;2022-08-21T06:34:16;17.70;99.90
46492;DHT22;32206;51.446;6.792;2022-08-21T06:36:42;17.80;99.90
46492;DHT22;32206;51.446;6.792;2022-08-21T06:39:08;17.90;99.90
46492;DHT22;32206;51.446;6.792;2022-08-21T06:41:34;17.90;99.90
46492;DHT22;32206;51.446;6.792;2022-08-21T06:43:59;18.00;99.90
46492;DHT22;32206;51.446;6.792;2022-08-21T06:46:27;18.00;99.90
46492;DHT22;32206;51.446;6.792;2022-08-21T06:48:53;18.10;99.90
46492;DHT22;32206;51.446;6.792;2022-08-21T06:51:19;18.20;1.00
46492;DHT22;32206;51.446;6.792;2022-08-21T06:53:45;18.20;99.90
46492;DHT22;32206;51.446;6.792;2022-08-21T06:56:11;18.30;99.90
46492;DHT22;32206;51.446;6.792;2022-08-21T06:58:37;18.30;99.90
46492;DHT22;32206;51.446;6.792;2022-08-21T07:01:03;18.30;1.00
46492;DHT22;32206;51.446;6.792;2022-08-21T07:03:33;18.40;99.90
46492;DHT22;32206;51.446;6.792;2022-08-21T07:05:59;18.50;99.90
46492;DHT22;32206;51.446;6.792;2022-08-21T07:08:26;18.60;1.00
46492;DHT22;32206;51.446;6.792;2022-08-21T07:10:53;18.60;74.30
46492;DHT22;32206;51.446;6.792;2022-08-21T07:13:19;18.60;99.90
46492;DHT22;32206;51.446;6.792;2022-08-21T07:15:45;18.60;99.90
46492;DHT22;32206;51.446;6.792;2022-08-21T07:18:12;18.60;99.90
46492;DHT22;32206;51.446;6.792;2022-08-21T07:20:39;18.70;99.90
46492;DHT22;32206;51.446;6.792;2022-08-21T07:23:09;18.80;99.90
46492;DHT22;32206;51.446;6.792;2022-08-21T07:25:35;18.90;13.50
46492;DHT22;32206;51.446;6.792;2022-08-21T07:28:01;18.90;68.70
46492;DHT22;32206;51.446;6.792;2022-08-21T07:30:28;19.00;99.90
46492;DHT22;32206;51.446;6.792;2022-08-21T07:32:54;19.10;99.90
46492;DHT22;32206;51.446;6.792;2022-08-21T07:35:20;19.10;99.90
46492;DHT22;32206;51.446;6.792;2022-08-21T07:37:46;19.20;99.90
46492;DHT22;32206;51.446;6.792;2022-08-21T07:40:13;19.20;99.90
46492;DHT22;32206;51.446;6.792;2022-08-21T07:42:44;19.30;99.90
46492;DHT22;32206;51.446;6.792;2022-08-21T07:45:11;19.30;99.90
46492;DHT22;32206;51.446;6.792;2022-08-21T07:47:36;19.40;99.90
46492;DHT22;32206;51.446;6.792;2022-08-21T07:50:04;19.40;1.00
46492;DHT22;32206;51.446;6.792;2022-08-21T07:52:29;19.40;1.00
46492;DHT22;32206;51.446;6.792;2022-08-21T07:54:55;19.50;99.90
46492;DHT22;32206;51.446;6.792;2022-08-21T07:57:21;19.60;99.90
46492;DHT22;32206;51.446;6.792;2022-08-21T07:59:46;19.70;99.90
46492;DHT22;32206;51.446;6.792;2022-08-21T08:02:24;19.70;47.80
46492;DHT22;32206;51.446;6.792;2022-08-21T08:04:51;19.70;1.00
46492;DHT22;32206;51.446;6.792;2022-08-21T08:07:19;19.80;1.00
46492;DHT22;32206;51.446;6.792;2022-08-21T08:09:45;19.80;1.00
46492;DHT22;32206;51.446;6.792;2022-08-21T08:12:11;19.80;1.00
46492;DHT22;32206;51.446;6.792;2022-08-21T08:14:37;19.90;1.00
46492;DHT22;32206;51.446;6.792;2022-08-21T08:17:02;19.90;1.00
46492;DHT22;32206;51.446;6.792;2022-08-21T08:19:29;19.90;99.90
46492;DHT22;32206;51.446;6.792;2022-08-21T08:21:55;19.90;99.90
46492;DHT22;32206;51.446;6.792;2022-08-21T08:24:21;20.00;99.90
46492;DHT22;32206;51.446;6.792;2022-08-21T08:26:47;20.00;99.90
46492;DHT22;32206;51.446;6.792;2022-08-21T08:29:12;20.00;99.90
46492;DHT22;32206;51.446;6.792;2022-08-21T08:31:38;20.10;99.90
46492;DHT22;32206;51.446;6.792;2022-08-21T08:34:05;20.20;99.90
46492;DHT22;32206;51.446;6.792;2022-08-21T08:36:33;20.20;99.90
46492;DHT22;32206;51.446;6.792;2022-08-21T08:38:59;20.30;99.90
46492;DHT22;32206;51.446;6.792;2022-08-21T08:41:26;20.30;99.90
46492;DHT22;32206;51.446;6.792;2022-08-21T08:43:54;20.30;99.90
46492;DHT22;32206;51.446;6.792;2022-08-21T08:49:00;20.40;99.90
46492;DHT22;32206;51.446;6.792;2022-08-21T08:51:48;20.50;99.90
46492;DHT22;32206;51.446;6.792;2022-08-21T08:54:28;20.50;99.90
46492;DHT22;32206;51.446;6.792;2022-08-21T08:57:01;20.60;99.90
46492;DHT22;32206;51.446;6.792;2022-08-21T08:59:38;20.80;99.90
46492;DHT22;32206;51.446;6.792;2022-08-21T09:02:04;20.80;99.90
46492;DHT22;32206;51.446;6.792;2022-08-21T09:04:31;20.90;99.90
46492;DHT22;32206;51.446;6.792;2022-08-21T09:10:27;21.10;99.90
46492;DHT22;32206;51.446;6.792;2022-08-21T09:23:26;21.20;91.90
46492;DHT22;32206;51.446;6.792;2022-08-21T09:28:40;21.30;1.00
46492;DHT22;32206;51.446;6.792;2022-08-21T09:31:11;21.30;99.90
46492;DHT22;32206;51.446;6.792;2022-08-21T09:33:40;21.40;30.20
46492;DHT22;32206;51.446;6.792;2022-08-21T09:36:06;21.50;1.00
46492;DHT22;32206;51.446;6.792;2022-08-21T09:38:35;21.60;1.00
46492;DHT22;32206;51.446;6.792;2022-08-21T09:41:09;21.60;1.00
46492;DHT22;32206;51.446;6.792;2022-08-21T09:43:36;21.60;1.00
46492;DHT22;32206;51.446;6.792;2022-08-21T09:48:28;21.80;1.00
46492;DHT22;32206;51.446;6.792;2022-08-21T09:51:06;21.90;1.00
46492;DHT22;32206;51.446;6.792;2022-08-21T09:53:33;22.00;1.00
46492;DHT22;32206;51.446;6.792;2022-08-21T09:56:04;22.20;1.00
46492;DHT22;32206;51.446;6.792;2022-08-21T09:58:50;22.30;99.90
46492;DHT22;32206;51.446;6.792;2022-08-21T10:01:22;22.50;99.90
46492;DHT22;32206;51.446;6.792;2022-08-21T10:03:48;22.50;99.90
46492;DHT22;32206;51.446;6.792;2022-08-21T10:06:24;22.50;99.90
46492;DHT22;32206;51.446;6.792;2022-08-21T10:08:50;22.60;99.90
46492;DHT22;32206;51.446;6.792;2022-08-21T10:11:17;22.60;99.90
46492;DHT22;32206;51.446;6.792;2022-08-21T10:14:05;22.60;99.90
46492;DHT22;32206;51.446;6.792;2022-08-21T10:24:57;23.20;99.90
46492;DHT22;32206;51.446;6.792;2022-08-21T10:29:57;23.20;99.90
46492;DHT22;32206;51.446;6.792;2022-08-21T10:40:26;23.40;99.90
46492;DHT22;32206;51.446;6.792;2022-08-21T10:43:03;23.40;99.90
46492;DHT22;32206;51.446;6.792;2022-08-21T10:48:03;23.40;99.90
46492;DHT22;32206;51.446;6.792;2022-08-21T10:50:51;23.50;99.90
46492;DHT22;32206;51.446;6.792;2022-08-21T10:56:30;23.70;99.90
46492;DHT22;32206;51.446;6.792;2022-08-21T10:59:04;23.90;99.90
46492;DHT22;32206;51.446;6.792;2022-08-21T11:04:31;24.00;99.90
46492;DHT22;32206;51.446;6.792;2022-08-21T11:07:07;24.00;99.90
46492;DHT22;32206;51.446;6.792;2022-08-21T11:09:35;24.00;99.90
46492;DHT22;32206;51.446;6.792;2022-08-21T11:12:06;24.00;99.90
46492;DHT22;32206;51.446;6.792;2022-08-21T11:14:59;24.10;99.90
46492;DHT22;32206;51.446;6.792;2022-08-21T11:17:41;24.10;99.90
46492;DHT22;32206;51.446;6.792;2022-08-21T11:25:41;24.30;99.90
46492;DHT22;32206;51.446;6.792;2022-08-21T11:28:26;24.50;99.90
46492;DHT22;32206;51.446;6.792;2022-08-21T11:45:27;25.00;99.90
46492;DHT22;32206;51.446;6.792;2022-08-21T11:50:36;25.10;99.90
46492;DHT22;32206;51.446;6.792;2022-08-21T11:54:20;25.10;99.90
46492;DHT22;32206;51.446;6.792;2022-08-21T11:56:43;25.20;99.90
46492;DHT22;32206;51.446;6.792;2022-08-21T11:59:18;25.30;99.90
46492;DHT22;32206;51.446;6.792;2022-08-21T12:01:46;25.40;99.90
46492;DHT22;32206;51.446;6.792;2022-08-21T12:06:49;25.50;99.90
46492;DHT22;32206;51.446;6.792;2022-08-21T12:12:05;25.80;99.90
46492;DHT22;32206;51.446;6.792;2022-08-21T12:17:24;26.10;99.90
46492;DHT22;32206;51.446;6.792;2022-08-21T12:20:02;26.20;99.90
46492;DHT22;32206;51.446;6.792;2022-08-21T12:22:40;26.30;99.90
46492;DHT22;32206;51.446;6.792;2022-08-21T12:25:10;26.40;99.90
46492;DHT22;32206;51.446;6.792;2022-08-21T12:27:49;26.50;99.90
46492;DHT22;32206;51.446;6.792;2022-08-21T12:30:43;26.50;99.90
46492;DHT22;32206;51.446;6.792;2022-08-21T12:33:32;26.50;99.90
46492;DHT22;32206;51.446;6.792;2022-08-21T12:36:14;26.50;99.90
46492;DHT22;32206;51.446;6.792;2022-08-21T12:38:59;26.60;99.90
46492;DHT22;32206;51.446;6.792;2022-08-21T12:41:28;26.60;99.90
46492;DHT22;32206;51.446;6.792;2022-08-21T12:44:28;26.70;99.90
46492;DHT22;32206;51.446;6.792;2022-08-21T12:46:56;26.90;99.90
46492;DHT22;32206;51.446;6.792;2022-08-21T12:49:40;26.90;99.90
46492;DHT22;32206;51.446;6.792;2022-08-21T12:52:14;26.90;99.90
46492;DHT22;32206;51.446;6.792;2022-08-21T12:54:43;26.90;99.90
46492;DHT22;32206;51.446;6.792;2022-08-21T12:57:21;27.00;99.90
46492;DHT22;32206;51.446;6.792;2022-08-21T12:59:52;27.10;99.90
46492;DHT22;32206;51.446;6.792;2022-08-21T13:02:22;27.20;99.90
46492;DHT22;32206;51.446;6.792;2022-08-21T13:04:49;27.20;99.90
46492;DHT22;32206;51.446;6.792;2022-08-21T13:07:22;27.20;99.90
46492;DHT22;32206;51.446;6.792;2022-08-21T13:09:53;27.20;99.90
46492;DHT22;32206;51.446;6.792;2022-08-21T13:12:21;27.10;99.90
46492;DHT22;32206;51.446;6.792;2022-08-21T13:14:49;27.10;99.90
46492;DHT22;32206;51.446;6.792;2022-08-21T13:17:19;27.20;99.90
46492;DHT22;32206;51.446;6.792;2022-08-21T13:20:04;27.20;99.90
46492;DHT22;32206;51.446;6.792;2022-08-21T13:22:30;27.20;99.90
46492;DHT22;32206;51.446;6.792;2022-08-21T13:24:56;27.30;99.90
46492;DHT22;32206;51.446;6.792;2022-08-21T13:27:28;27.40;99.90
46492;DHT22;32206;51.446;6.792;2022-08-21T13:30:17;27.50;99.90
46492;DHT22;32206;51.446;6.792;2022-08-21T13:32:45;27.60;99.90
46492;DHT22;32206;51.446;6.792;2022-08-21T13:37:39;27.60;99.90
46492;DHT22;32206;51.446;6.792;2022-08-21T13:40:09;27.60;99.90
46492;DHT22;32206;51.446;6.792;2022-08-21T13:42:35;27.70;99.90
46492;DHT22;32206;51.446;6.792;2022-08-21T13:45:00;27.70;99.90
46492;DHT22;32206;51.446;6.792;2022-08-21T13:47:26;27.70;99.90
46492;DHT22;32206;51.446;6.792;2022-08-21T13:49:52;27.70;99.90
46492;DHT22;32206;51.446;6.792;2022-08-21T13:52:26;27.60;99.90
46492;DHT22;32206;51.446;6.792;2022-08-21T13:54:57;27.60;99.90
46492;DHT22;32206;51.446;6.792;2022-08-21T13:57:30;27.70;99.90
46492;DHT22;32206;51.446;6.792;2022-08-21T14:02:42;27.50;99.90
46492;DHT22;32206;51.446;6.792;2022-08-21T14:05:16;27.50;99.90
46492;DHT22;32206;51.446;6.792;2022-08-21T14:07:44;27.50;99.90
46492;DHT22;32206;51.446;6.792;2022-08-21T14:10:20;27.40;99.90
46492;DHT22;32206;51.446;6.792;2022-08-21T14:12:55;27.30;99.90
46492;DHT22;32206;51.446;6.792;2022-08-21T14:15:28;27.30;99.90
46492;DHT22;32206;51.446;6.792;2022-08-21T14:18:16;27.30;99.90
46492;DHT22;32206;51.446;6.792;2022-08-21T14:20:43;27.30;99.90
46492;DHT22;32206;51.446;6.792;2022-08-21T14:23:08;27.20;99.90
46492;DHT22;32206;51.446;6.792;2022-08-21T14:25:43;27.10;99.90
46492;DHT22;32206;51.446;6.792;2022-08-21T14:30:48;26.90;99.90
46492;DHT22;32206;51.446;6.792;2022-08-21T14:33:31;26.80;99.90
46492;DHT22;32206;51.446;6.792;2022-08-21T14:35:58;26.80;99.90
46492;DHT22;32206;51.446;6.792;2022-08-21T14:38:25;26.70;99.90
46492;DHT22;32206;51.446;6.792;2022-08-21T14:41:04;26.70;99.90
46492;DHT22;32206;51.446;6.792;2022-08-21T14:43:33;26.70;99.90
46492;DHT22;32206;51.446;6.792;2022-08-21T14:46:00;26.90;99.90
46492;DHT22;32206;51.446;6.792;2022-08-21T14:48:26;27.00;99.90
46492;DHT22;32206;51.446;6.792;2022-08-21T14:50:51;27.10;99.90
46492;DHT22;32206;51.446;6.792;2022-08-21T14:53:17;27.10;99.90
46492;DHT22;32206;51.446;6.792;2022-08-21T14:55:43;27.00;99.90
46492;DHT22;32206;51.446;6.792;2022-08-21T14:58:27;26.90;99.90
46492;DHT22;32206;51.446;6.792;2022-08-21T15:00:54;27.00;99.90
46492;DHT22;32206;51.446;6.792;2022-08-21T15:03:20;27.00;99.90
46492;DHT22;32206;51.446;6.792;2022-08-21T15:05:47;27.10;99.90
46492;DHT22;32206;51.446;6.792;2022-08-21T15:08:13;27.20;99.90
46492;DHT22;32206;51.446;6.792;2022-08-21T15:10:39;27.20;99.90
46492;DHT22;32206;51.446;6.792;2022-08-21T15:13:05;27.20;99.90
46492;DHT22;32206;51.446;6.792;2022-08-21T15:15:36;27.30;99.90
46492;DHT22;32206;51.446;6.792;2022-08-21T15:18:03;27.40;99.90
46492;DHT22;32206;51.446;6.792;2022-08-21T15:20:29;27.60;99.90
46492;DHT22;32206;51.446;6.792;2022-08-21T15:22:55;27.70;99.90
46492;DHT22;32206;51.446;6.792;2022-08-21T15:25:21;27.80;99.90
46492;DHT22;32206;51.446;6.792;2022-08-21T15:27:46;27.90;99.90
46492;DHT22;32206;51.446;6.792;2022-08-21T15:30:12;28.00;99.90
46492;DHT22;32206;51.446;6.792;2022-08-21T15:32:38;28.00;99.90
46492;DHT22;32206;51.446;6.792;2022-08-21T15:35:05;28.00;99.90
46492;DHT22;32206;51.446;6.792;2022-08-21T15:37:30;28.00;99.90
46492;DHT22;32206;51.446;6.792;2022-08-21T15:39:56;27.80;99.90
46492;DHT22;32206;51.446;6.792;2022-08-21T15:42:22;27.80;99.90
46492;DHT22;32206;51.446;6.792;2022-08-21T15:44:49;27.80;99.90
46492;DHT22;32206;51.446;6.792;2022-08-21T15:47:18;27.80;99.90
46492;DHT22;32206;51.446;6.792;2022-08-21T15:49:44;28.00;99.90
46492;DHT22;32206;51.446;6.792;2022-08-21T15:52:15;28.20;99.90
46492;DHT22;32206;51.446;6.792;2022-08-21T15:54:41;28.30;99.90
46492;DHT22;32206;51.446;6.792;2022-08-21T15:57:11;28.40;99.90
46492;DHT22;32206;51.446;6.792;2022-08-21T15:59:42;28.40;99.90
46492;DHT22;32206;51.446;6.792;2022-08-21T16:02:21;28.50;99.90
46492;DHT22;32206;51.446;6.792;2022-08-21T16:04:47;28.40;99.90
46492;DHT22;32206;51.446;6.792;2022-08-21T16:07:13;28.30;99.90
46492;DHT22;32206;51.446;6.792;2022-08-21T16:09:38;28.20;99.90
46492;DHT22;32206;51.446;6.792;2022-08-21T16:12:05;28.00;99.90
46492;DHT22;32206;51.446;6.792;2022-08-21T16:14:31;28.00;99.90
46492;DHT22;32206;51.446;6.792;2022-08-21T16:16:59;27.90;99.90
46492;DHT22;32206;51.446;6.792;2022-08-21T16:19:26;27.80;99.90
46492;DHT22;32206;51.446;6.792;2022-08-21T16:21:53;27.80;99.90
46492;DHT22;32206;51.446;6.792;2022-08-21T16:24:18;27.80;99.90
46492;DHT22;32206;51.446;6.792;2022-08-21T16:26:44;27.80;99.90
46492;DHT22;32206;51.446;6.792;2022-08-21T16:29:10;27.80;99.90
46492;DHT22;32206;51.446;6.792;2022-08-21T16:31:36;27.70;99.90
46492;DHT22;32206;51.446;6.792;2022-08-21T16:34:02;27.70;99.90
46492;DHT22;32206;51.446;6.792;2022-08-21T16:36:28;27.40;99.90
46492;DHT22;32206;51.446;6.792;2022-08-21T16:38:55;27.20;99.90
46492;DHT22;32206;51.446;6.792;2022-08-21T16:41:23;27.00;99.90
46492;DHT22;32206;51.446;6.792;2022-08-21T16:43:50;27.00;99.90
46492;DHT22;32206;51.446;6.792;2022-08-21T16:46:17;26.90;99.90
46492;DHT22;32206;51.446;6.792;2022-08-21T16:48:43;26.80;99.90
46492;DHT22;32206;51.446;6.792;2022-08-21T16:51:11;26.80;99.90
46492;DHT22;32206;51.446;6.792;2022-08-21T16:53:37;26.80;99.90
46492;DHT22;32206;51.446;6.792;2022-08-21T16:56:03;26.80;99.90
46492;DHT22;32206;51.446;6.792;2022-08-21T16:58:32;26.90;99.90
46492;DHT22;32206;51.446;6.792;2022-08-21T17:00:59;26.80;99.90
46492;DHT22;32206;51.446;6.792;2022-08-21T17:03:31;26.60;99.90
46492;DHT22;32206;51.446;6.792;2022-08-21T17:05:59;26.60;99.90
46492;DHT22;32206;51.446;6.792;2022-08-21T17:08:24;26.40;99.90
46492;DHT22;32206;51.446;6.792;2022-08-21T17:10:50;26.30;99.90
46492;DHT22;32206;51.446;6.792;2022-08-21T17:13:16;26.30;99.90